KWRL/WRL METAR and TAF weather

Enter ICAO airport designator
Station Type Date Time Source
KWRL METAR 2019/08/19 01:53 UTC NOAA

KWRL 190153Z AUTO 08005KT 10SM CLR 24/06 A2986 RMK AO2 SLP076 T02440061


Station Type Date Time Source
KWRL Decoded METAR 2019/08/19 01:53 UTC NOAA

Station name not available
Aug 18, 2019 - 09:53 PM EDT / 2019.08.19 0153 UTC
Wind: from the E (080 degrees) at 6 MPH (5 KT):0
Visibility: 10 mile(s):0
Sky conditions: clear
Temperature: 75.9 F (24.4 C)
Dew Point: 43.0 F (6.1 C)
Relative Humidity: 30%
Pressure (altimeter): 29.86 in. Hg (1011 hPa)
ob: KWRL 190153Z AUTO 08005KT 10SM CLR 24/06 A2986 RMK AO2 SLP076 T02440061
cycle: 2

Station Type Date Time Source
KWRL TAF 2019/08/18 18:36 UTC NOAA

TAF KWRL 181733Z 1818/1918 VRB06KT P6SM FEW250

Example: see airport list